sensor_id;sensor_type;location;lat;lon;timestamp;temperature;humidity
36816;DHT22;71982;52.294;6.760;2023-08-07T00:00:54;14.50;99.90
36816;DHT22;71982;52.294;6.760;2023-08-07T00:03:21;14.50;99.90
36816;DHT22;71982;52.294;6.760;2023-08-07T00:41:23;14.40;99.90
36816;DHT22;71982;52.294;6.760;2023-08-07T01:46:02;14.40;99.90
36816;DHT22;71982;52.294;6.760;2023-08-07T01:48:30;14.30;99.90
36816;DHT22;71982;52.294;6.760;2023-08-07T01:50:57;14.30;99.90
36816;DHT22;71982;52.294;6.760;2023-08-07T01:53:24;14.30;99.90
36816;DHT22;71982;52.294;6.760;2023-08-07T01:55:50;14.30;99.90
36816;DHT22;71982;52.294;6.760;2023-08-07T01:58:17;14.40;99.90
36816;DHT22;71982;52.294;6.760;2023-08-07T02:00:44;14.30;99.90
36816;DHT22;71982;52.294;6.760;2023-08-07T02:03:12;14.40;99.90
36816;DHT22;71982;52.294;6.760;2023-08-07T02:05:39;14.40;99.90
36816;DHT22;71982;52.294;6.760;2023-08-07T02:08:05;14.40;99.90
36816;DHT22;71982;52.294;6.760;2023-08-07T02:10:32;14.40;99.90
36816;DHT22;71982;52.294;6.760;2023-08-07T02:12:59;14.40;99.90
36816;DHT22;71982;52.294;6.760;2023-08-07T02:15:26;14.40;99.90
36816;DHT22;71982;52.294;6.760;2023-08-07T02:17:53;14.40;99.90
36816;DHT22;71982;52.294;6.760;2023-08-07T02:20:21;14.40;99.90
36816;DHT22;71982;52.294;6.760;2023-08-07T02:22:48;14.40;99.90
36816;DHT22;71982;52.294;6.760;2023-08-07T02:25:15;14.40;99.90
36816;DHT22;71982;52.294;6.760;2023-08-07T02:27:41;14.40;99.90
36816;DHT22;71982;52.294;6.760;2023-08-07T02:30:08;14.40;99.90
36816;DHT22;71982;52.294;6.760;2023-08-07T02:32:35;14.40;99.90
36816;DHT22;71982;52.294;6.760;2023-08-07T02:35:02;14.30;99.90
36816;DHT22;71982;52.294;6.760;2023-08-07T02:37:31;14.30;99.90
36816;DHT22;71982;52.294;6.760;2023-08-07T02:39:57;14.30;99.90
36816;DHT22;71982;52.294;6.760;2023-08-07T02:42:24;14.30;99.90
36816;DHT22;71982;52.294;6.760;2023-08-07T02:44:51;14.30;99.90
36816;DHT22;71982;52.294;6.760;2023-08-07T02:47:18;14.20;99.90
36816;DHT22;71982;52.294;6.760;2023-08-07T02:49:44;14.20;99.90
36816;DHT22;71982;52.294;6.760;2023-08-07T02:52:11;14.30;99.90
36816;DHT22;71982;52.294;6.760;2023-08-07T02:54:39;14.20;99.90
36816;DHT22;71982;52.294;6.760;2023-08-07T02:57:06;14.20;99.90
36816;DHT22;71982;52.294;6.760;2023-08-07T02:59:33;14.20;99.90
36816;DHT22;71982;52.294;6.760;2023-08-07T03:02:00;14.20;99.90
36816;DHT22;71982;52.294;6.760;2023-08-07T03:04:26;14.20;99.90
36816;DHT22;71982;52.294;6.760;2023-08-07T03:06:53;14.30;99.90
36816;DHT22;71982;52.294;6.760;2023-08-07T03:09:20;14.30;99.90
36816;DHT22;71982;52.294;6.760;2023-08-07T03:11:48;14.30;99.90
36816;DHT22;71982;52.294;6.760;2023-08-07T03:14:15;14.30;99.90
36816;DHT22;71982;52.294;6.760;2023-08-07T03:16:41;14.30;99.90
36816;DHT22;71982;52.294;6.760;2023-08-07T03:19:08;14.30;99.90
36816;DHT22;71982;52.294;6.760;2023-08-07T03:21:35;14.30;99.90
36816;DHT22;71982;52.294;6.760;2023-08-07T03:24:02;14.30;99.90
36816;DHT22;71982;52.294;6.760;2023-08-07T03:51:26;14.00;99.90
36816;DHT22;71982;52.294;6.760;2023-08-07T03:53:52;13.90;99.90
36816;DHT22;71982;52.294;6.760;2023-08-07T03:56:19;13.90;99.90
36816;DHT22;71982;52.294;6.760;2023-08-07T03:58:46;13.90;99.90
36816;DHT22;71982;52.294;6.760;2023-08-07T04:01:14;13.90;99.90
36816;DHT22;71982;52.294;6.760;2023-08-07T04:03:41;13.90;99.90
36816;DHT22;71982;52.294;6.760;2023-08-07T04:06:08;13.90;99.90
36816;DHT22;71982;52.294;6.760;2023-08-07T04:08:39;13.90;99.90
36816;DHT22;71982;52.294;6.760;2023-08-07T04:11:06;13.90;99.90
36816;DHT22;71982;52.294;6.760;2023-08-07T04:13:34;13.90;99.90
36816;DHT22;71982;52.294;6.760;2023-08-07T04:16:01;13.90;99.90
36816;DHT22;71982;52.294;6.760;2023-08-07T04:18:29;13.90;99.90
36816;DHT22;71982;52.294;6.760;2023-08-07T04:20:57;13.80;99.90
36816;DHT22;71982;52.294;6.760;2023-08-07T04:23:24;13.90;99.90
36816;DHT22;71982;52.294;6.760;2023-08-07T04:25:53;13.90;99.90
36816;DHT22;71982;52.294;6.760;2023-08-07T04:28:20;13.80;99.90
36816;DHT22;71982;52.294;6.760;2023-08-07T04:30:49;13.90;99.90
36816;DHT22;71982;52.294;6.760;2023-08-07T04:33:16;14.00;99.90
36816;DHT22;71982;52.294;6.760;2023-08-07T04:35:43;13.90;99.90
36816;DHT22;71982;52.294;6.760;2023-08-07T04:38:12;14.00;99.90
36816;DHT22;71982;52.294;6.760;2023-08-07T04:40:43;14.00;99.90
36816;DHT22;71982;52.294;6.760;2023-08-07T04:43:11;14.00;99.90
36816;DHT22;71982;52.294;6.760;2023-08-07T04:45:38;14.00;99.90
36816;DHT22;71982;52.294;6.760;2023-08-07T04:48:05;14.00;99.90
36816;DHT22;71982;52.294;6.760;2023-08-07T04:50:32;14.00;99.90
36816;DHT22;71982;52.294;6.760;2023-08-07T04:52:58;14.00;99.90
36816;DHT22;71982;52.294;6.760;2023-08-07T04:55:25;14.10;99.90
36816;DHT22;71982;52.294;6.760;2023-08-07T04:57:52;14.10;99.90
36816;DHT22;71982;52.294;6.760;2023-08-07T05:00:21;14.10;99.90
36816;DHT22;71982;52.294;6.760;2023-08-07T05:02:48;14.20;99.90
36816;DHT22;71982;52.294;6.760;2023-08-07T05:05:15;14.20;99.90
36816;DHT22;71982;52.294;6.760;2023-08-07T05:07:42;14.20;99.90
36816;DHT22;71982;52.294;6.760;2023-08-07T05:10:09;14.20;99.90
36816;DHT22;71982;52.294;6.760;2023-08-07T05:12:36;14.30;99.90
36816;DHT22;71982;52.294;6.760;2023-08-07T05:15:03;14.30;99.90
36816;DHT22;71982;52.294;6.760;2023-08-07T05:17:32;14.30;99.90
36816;DHT22;71982;52.294;6.760;2023-08-07T05:19:58;14.40;99.90
36816;DHT22;71982;52.294;6.760;2023-08-07T05:22:25;14.40;99.90
36816;DHT22;71982;52.294;6.760;2023-08-07T05:24:52;14.50;99.90
36816;DHT22;71982;52.294;6.760;2023-08-07T05:27:19;14.50;99.90
36816;DHT22;71982;52.294;6.760;2023-08-07T05:29:45;14.60;99.90
36816;DHT22;71982;52.294;6.760;2023-08-07T05:32:13;14.60;99.90
36816;DHT22;71982;52.294;6.760;2023-08-07T05:34:41;14.60;99.90
36816;DHT22;71982;52.294;6.760;2023-08-07T05:37:08;14.70;99.90
36816;DHT22;71982;52.294;6.760;2023-08-07T05:39:35;14.80;99.90
36816;DHT22;71982;52.294;6.760;2023-08-07T05:42:03;14.80;99.90
36816;DHT22;71982;52.294;6.760;2023-08-07T05:44:30;14.70;99.90
36816;DHT22;71982;52.294;6.760;2023-08-07T05:46:57;14.80;99.90
36816;DHT22;71982;52.294;6.760;2023-08-07T05:49:23;14.90;99.90
36816;DHT22;71982;52.294;6.760;2023-08-07T05:51:51;14.90;99.90
36816;DHT22;71982;52.294;6.760;2023-08-07T05:54:18;14.90;99.90
36816;DHT22;71982;52.294;6.760;2023-08-07T05:56:45;14.90;99.90
36816;DHT22;71982;52.294;6.760;2023-08-07T05:59:12;14.90;99.90
36816;DHT22;71982;52.294;6.760;2023-08-07T06:01:38;15.00;99.90
36816;DHT22;71982;52.294;6.760;2023-08-07T06:04:06;15.00;99.90
36816;DHT22;71982;52.294;6.760;2023-08-07T06:06:34;15.10;99.90
36816;DHT22;71982;52.294;6.760;2023-08-07T06:09:02;15.20;99.90
36816;DHT22;71982;52.294;6.760;2023-08-07T06:11:29;15.20;99.90
36816;DHT22;71982;52.294;6.760;2023-08-07T06:13:56;15.20;99.90
36816;DHT22;71982;52.294;6.760;2023-08-07T06:16:23;15.20;99.90
36816;DHT22;71982;52.294;6.760;2023-08-07T06:18:50;15.20;99.90
36816;DHT22;71982;52.294;6.760;2023-08-07T06:21:16;15.20;99.90
36816;DHT22;71982;52.294;6.760;2023-08-07T06:23:43;15.10;99.90
36816;DHT22;71982;52.294;6.760;2023-08-07T06:26:11;15.10;99.90
36816;DHT22;71982;52.294;6.760;2023-08-07T06:28:38;15.10;99.90
36816;DHT22;71982;52.294;6.760;2023-08-07T06:31:06;15.00;99.90
36816;DHT22;71982;52.294;6.760;2023-08-07T06:33:33;14.90;99.90
36816;DHT22;71982;52.294;6.760;2023-08-07T06:36:00;15.00;99.90
36816;DHT22;71982;52.294;6.760;2023-08-07T06:38:27;15.00;99.90
36816;DHT22;71982;52.294;6.760;2023-08-07T06:40:54;15.10;99.90
36816;DHT22;71982;52.294;6.760;2023-08-07T06:43:22;15.00;99.90
36816;DHT22;71982;52.294;6.760;2023-08-07T06:45:50;15.00;99.90
36816;DHT22;71982;52.294;6.760;2023-08-07T06:48:17;15.00;99.90
36816;DHT22;71982;52.294;6.760;2023-08-07T06:50:43;15.00;99.90
36816;DHT22;71982;52.294;6.760;2023-08-07T06:53:10;15.10;99.90
36816;DHT22;71982;52.294;6.760;2023-08-07T06:55:37;15.10;99.90
36816;DHT22;71982;52.294;6.760;2023-08-07T06:58:04;15.10;99.90
36816;DHT22;71982;52.294;6.760;2023-08-07T07:00:32;15.20;99.90
36816;DHT22;71982;52.294;6.760;2023-08-07T07:03:00;15.20;99.90
36816;DHT22;71982;52.294;6.760;2023-08-07T07:05:27;15.40;99.90
36816;DHT22;71982;52.294;6.760;2023-08-07T07:07:55;15.50;99.90
36816;DHT22;71982;52.294;6.760;2023-08-07T07:10:22;15.60;99.90
36816;DHT22;71982;52.294;6.760;2023-08-07T07:12:49;15.80;99.90
36816;DHT22;71982;52.294;6.760;2023-08-07T07:15:16;15.80;99.90
36816;DHT22;71982;52.294;6.760;2023-08-07T07:17:44;15.60;99.90
36816;DHT22;71982;52.294;6.760;2023-08-07T07:20:11;15.30;99.90
36816;DHT22;71982;52.294;6.760;2023-08-07T07:22:38;15.10;99.90
36816;DHT22;71982;52.294;6.760;2023-08-07T07:25:06;14.90;99.90
36816;DHT22;71982;52.294;6.760;2023-08-07T07:27:33;14.90;99.90
36816;DHT22;71982;52.294;6.760;2023-08-07T07:29:59;15.00;99.90
36816;DHT22;71982;52.294;6.760;2023-08-07T07:32:26;14.90;99.90
36816;DHT22;71982;52.294;6.760;2023-08-07T07:34:56;14.90;99.90
36816;DHT22;71982;52.294;6.760;2023-08-07T07:37:23;15.00;99.90
36816;DHT22;71982;52.294;6.760;2023-08-07T07:39:50;15.00;99.90
36816;DHT22;71982;52.294;6.760;2023-08-07T07:42:17;15.20;99.90
36816;DHT22;71982;52.294;6.760;2023-08-07T07:44:44;15.10;99.90
36816;DHT22;71982;52.294;6.760;2023-08-07T07:47:10;15.30;99.90
36816;DHT22;71982;52.294;6.760;2023-08-07T07:49:37;15.40;99.90
36816;DHT22;71982;52.294;6.760;2023-08-07T07:52:06;15.50;99.90
36816;DHT22;71982;52.294;6.760;2023-08-07T07:54:34;15.70;99.90
36816;DHT22;71982;52.294;6.760;2023-08-07T07:57:01;16.00;99.90
36816;DHT22;71982;52.294;6.760;2023-08-07T07:59:28;16.00;99.90
36816;DHT22;71982;52.294;6.760;2023-08-07T08:01:55;16.10;99.90
36816;DHT22;71982;52.294;6.760;2023-08-07T08:04:47;16.10;99.90
36816;DHT22;71982;52.294;6.760;2023-08-07T08:07:15;16.10;99.90
36816;DHT22;71982;52.294;6.760;2023-08-07T08:09:42;15.90;99.90
36816;DHT22;71982;52.294;6.760;2023-08-07T08:12:09;15.90;99.90
36816;DHT22;71982;52.294;6.760;2023-08-07T08:14:36;15.80;99.90
36816;DHT22;71982;52.294;6.760;2023-08-07T08:17:03;15.70;99.90
36816;DHT22;71982;52.294;6.760;2023-08-07T08:19:30;15.80;99.90
36816;DHT22;71982;52.294;6.760;2023-08-07T08:21:57;15.80;99.90
36816;DHT22;71982;52.294;6.760;2023-08-07T08:24:25;16.00;99.90
36816;DHT22;71982;52.294;6.760;2023-08-07T08:26:51;16.20;99.90
36816;DHT22;71982;52.294;6.760;2023-08-07T08:29:18;16.40;99.90
36816;DHT22;71982;52.294;6.760;2023-08-07T08:31:45;16.20;99.90
36816;DHT22;71982;52.294;6.760;2023-08-07T08:34:12;16.10;99.90
36816;DHT22;71982;52.294;6.760;2023-08-07T08:36:38;15.80;99.90
36816;DHT22;71982;52.294;6.760;2023-08-07T08:39:05;15.20;99.90
36816;DHT22;71982;52.294;6.760;2023-08-07T08:41:33;15.00;99.90
36816;DHT22;71982;52.294;6.760;2023-08-07T08:44:01;14.80;99.90
36816;DHT22;71982;52.294;6.760;2023-08-07T08:46:31;14.90;99.90
36816;DHT22;71982;52.294;6.760;2023-08-07T08:48:59;15.50;99.90
36816;DHT22;71982;52.294;6.760;2023-08-07T08:51:28;15.90;99.90
36816;DHT22;71982;52.294;6.760;2023-08-07T08:53:55;16.10;99.90
36816;DHT22;71982;52.294;6.760;2023-08-07T08:56:23;16.20;99.90
36816;DHT22;71982;52.294;6.760;2023-08-07T08:58:51;16.30;99.90
36816;DHT22;71982;52.294;6.760;2023-08-07T09:01:18;16.20;99.90
36816;DHT22;71982;52.294;6.760;2023-08-07T09:03:46;16.30;99.90
36816;DHT22;71982;52.294;6.760;2023-08-07T09:06:15;16.20;99.90
36816;DHT22;71982;52.294;6.760;2023-08-07T09:08:43;16.40;99.90
36816;DHT22;71982;52.294;6.760;2023-08-07T09:11:10;16.40;99.90
36816;DHT22;71982;52.294;6.760;2023-08-07T09:13:40;16.60;99.90
36816;DHT22;71982;52.294;6.760;2023-08-07T09:16:09;16.80;99.90
36816;DHT22;71982;52.294;6.760;2023-08-07T09:18:37;17.10;99.90
36816;DHT22;71982;52.294;6.760;2023-08-07T09:21:04;17.40;99.90
36816;DHT22;71982;52.294;6.760;2023-08-07T09:23:31;17.40;99.90
36816;DHT22;71982;52.294;6.760;2023-08-07T09:26:02;17.00;99.90
36816;DHT22;71982;52.294;6.760;2023-08-07T09:28:32;16.60;99.90
36816;DHT22;71982;52.294;6.760;2023-08-07T09:30:59;16.20;99.90
36816;DHT22;71982;52.294;6.760;2023-08-07T09:33:29;16.00;99.90
36816;DHT22;71982;52.294;6.760;2023-08-07T09:35:57;16.00;99.90
36816;DHT22;71982;52.294;6.760;2023-08-07T09:38:28;16.50;99.90
36816;DHT22;71982;52.294;6.760;2023-08-07T09:40:57;16.90;99.90
36816;DHT22;71982;52.294;6.760;2023-08-07T09:43:24;17.30;99.90
36816;DHT22;71982;52.294;6.760;2023-08-07T09:45:51;17.30;99.90
36816;DHT22;71982;52.294;6.760;2023-08-07T09:48:23;17.20;99.90
36816;DHT22;71982;52.294;6.760;2023-08-07T09:50:51;17.00;99.90
36816;DHT22;71982;52.294;6.760;2023-08-07T09:53:25;16.90;99.90
36816;DHT22;71982;52.294;6.760;2023-08-07T09:55:52;16.60;99.90
36816;DHT22;71982;52.294;6.760;2023-08-07T09:58:19;16.60;99.90
36816;DHT22;71982;52.294;6.760;2023-08-07T10:00:47;16.40;99.90
36816;DHT22;71982;52.294;6.760;2023-08-07T10:03:14;16.60;99.90
36816;DHT22;71982;52.294;6.760;2023-08-07T10:05:42;16.90;99.90
36816;DHT22;71982;52.294;6.760;2023-08-07T10:08:12;17.40;99.90
36816;DHT22;71982;52.294;6.760;2023-08-07T10:10:39;17.80;99.90
36816;DHT22;71982;52.294;6.760;2023-08-07T10:13:06;17.70;99.90
36816;DHT22;71982;52.294;6.760;2023-08-07T10:15:34;17.40;99.90
36816;DHT22;71982;52.294;6.760;2023-08-07T10:18:01;17.00;99.90
36816;DHT22;71982;52.294;6.760;2023-08-07T10:20:29;17.20;99.90
36816;DHT22;71982;52.294;6.760;2023-08-07T10:23:00;17.40;99.90
36816;DHT22;71982;52.294;6.760;2023-08-07T10:25:28;17.60;99.90
36816;DHT22;71982;52.294;6.760;2023-08-07T10:27:56;17.90;99.90
36816;DHT22;71982;52.294;6.760;2023-08-07T10:30:26;18.50;99.90
36816;DHT22;71982;52.294;6.760;2023-08-07T10:32:54;18.70;99.90
36816;DHT22;71982;52.294;6.760;2023-08-07T10:35:24;19.10;99.90
36816;DHT22;71982;52.294;6.760;2023-08-07T10:37:52;19.50;99.90
36816;DHT22;71982;52.294;6.760;2023-08-07T10:40:19;19.20;99.90
36816;DHT22;71982;52.294;6.760;2023-08-07T10:42:56;19.70;99.90
36816;DHT22;71982;52.294;6.760;2023-08-07T10:45:24;19.10;99.90
36816;DHT22;71982;52.294;6.760;2023-08-07T10:48:01;18.70;99.90
36816;DHT22;71982;52.294;6.760;2023-08-07T10:50:29;18.20;99.90
36816;DHT22;71982;52.294;6.760;2023-08-07T10:52:56;17.90;99.90
36816;DHT22;71982;52.294;6.760;2023-08-07T10:55:23;17.90;99.90
36816;DHT22;71982;52.294;6.760;2023-08-07T10:57:50;18.00;99.90
36816;DHT22;71982;52.294;6.760;2023-08-07T11:00:25;18.00;99.90
36816;DHT22;71982;52.294;6.760;2023-08-07T11:02:52;17.90;99.90
36816;DHT22;71982;52.294;6.760;2023-08-07T11:05:19;17.70;99.90
36816;DHT22;71982;52.294;6.760;2023-08-07T11:07:47;17.50;99.90
36816;DHT22;71982;52.294;6.760;2023-08-07T11:10:14;17.60;99.90
36816;DHT22;71982;52.294;6.760;2023-08-07T11:12:41;17.70;99.90
36816;DHT22;71982;52.294;6.760;2023-08-07T11:15:12;18.20;99.90
36816;DHT22;71982;52.294;6.760;2023-08-07T11:17:40;18.50;99.90
36816;DHT22;71982;52.294;6.760;2023-08-07T11:20:09;19.10;99.90
36816;DHT22;71982;52.294;6.760;2023-08-07T11:22:38;19.20;99.90
36816;DHT22;71982;52.294;6.760;2023-08-07T11:25:07;19.70;99.90
36816;DHT22;71982;52.294;6.760;2023-08-07T11:27:39;19.90;99.90
36816;DHT22;71982;52.294;6.760;2023-08-07T11:30:07;19.90;99.90
36816;DHT22;71982;52.294;6.760;2023-08-07T11:32:36;19.80;99.90
36816;DHT22;71982;52.294;6.760;2023-08-07T11:35:06;19.40;99.90
36816;DHT22;71982;52.294;6.760;2023-08-07T11:37:33;19.20;99.90
36816;DHT22;71982;52.294;6.760;2023-08-07T11:40:01;19.70;99.90
36816;DHT22;71982;52.294;6.760;2023-08-07T11:42:28;20.20;99.90
36816;DHT22;71982;52.294;6.760;2023-08-07T11:44:55;20.50;99.90
36816;DHT22;71982;52.294;6.760;2023-08-07T11:47:22;20.30;99.90
36816;DHT22;71982;52.294;6.760;2023-08-07T11:49:49;20.50;99.90
36816;DHT22;71982;52.294;6.760;2023-08-07T11:52:20;20.60;99.90
36816;DHT22;71982;52.294;6.760;2023-08-07T11:54:47;20.40;99.90
36816;DHT22;71982;52.294;6.760;2023-08-07T11:57:16;20.40;99.90
36816;DHT22;71982;52.294;6.760;2023-08-07T11:59:46;20.70;99.90
36816;DHT22;71982;52.294;6.760;2023-08-07T12:02:13;20.40;99.90
36816;DHT22;71982;52.294;6.760;2023-08-07T12:04:40;20.10;99.90
36816;DHT22;71982;52.294;6.760;2023-08-07T12:07:07;19.60;99.90
36816;DHT22;71982;52.294;6.760;2023-08-07T12:09:37;19.30;99.90
36816;DHT22;71982;52.294;6.760;2023-08-07T12:12:06;19.00;99.90
36816;DHT22;71982;52.294;6.760;2023-08-07T12:14:33;18.60;99.90
36816;DHT22;71982;52.294;6.760;2023-08-07T12:17:01;18.70;99.90
36816;DHT22;71982;52.294;6.760;2023-08-07T12:19:36;19.20;99.90
36816;DHT22;71982;52.294;6.760;2023-08-07T12:22:06;19.20;99.90
36816;DHT22;71982;52.294;6.760;2023-08-07T12:24:36;19.10;99.90
36816;DHT22;71982;52.294;6.760;2023-08-07T12:27:04;19.10;99.90
36816;DHT22;71982;52.294;6.760;2023-08-07T12:29:31;19.50;99.90
36816;DHT22;71982;52.294;6.760;2023-08-07T12:31:57;20.10;99.90
36816;DHT22;71982;52.294;6.760;2023-08-07T12:34:26;20.30;99.90
36816;DHT22;71982;52.294;6.760;2023-08-07T12:36:53;20.40;99.90
36816;DHT22;71982;52.294;6.760;2023-08-07T12:39:20;20.90;99.90
36816;DHT22;71982;52.294;6.760;2023-08-07T12:41:48;20.70;99.90
36816;DHT22;71982;52.294;6.760;2023-08-07T12:44:15;20.00;99.90
36816;DHT22;71982;52.294;6.760;2023-08-07T12:46:42;21.00;99.90
36816;DHT22;71982;52.294;6.760;2023-08-07T12:49:09;21.80;99.90
36816;DHT22;71982;52.294;6.760;2023-08-07T12:51:36;21.20;99.90
36816;DHT22;71982;52.294;6.760;2023-08-07T12:54:02;20.90;99.90
36816;DHT22;71982;52.294;6.760;2023-08-07T12:56:31;21.20;99.90
36816;DHT22;71982;52.294;6.760;2023-08-07T12:58:59;22.10;99.90
36816;DHT22;71982;52.294;6.760;2023-08-07T13:01:25;23.10;99.30
36816;DHT22;71982;52.294;6.760;2023-08-07T13:03:52;23.10;98.50
36816;DHT22;71982;52.294;6.760;2023-08-07T13:06:19;22.40;98.60
36816;DHT22;71982;52.294;6.760;2023-08-07T13:08:46;21.60;99.90
36816;DHT22;71982;52.294;6.760;2023-08-07T13:11:13;21.00;99.90
36816;DHT22;71982;52.294;6.760;2023-08-07T13:13:40;21.40;99.90
36816;DHT22;71982;52.294;6.760;2023-08-07T13:16:09;21.80;99.90
36816;DHT22;71982;52.294;6.760;2023-08-07T13:18:36;21.50;99.90
36816;DHT22;71982;52.294;6.760;2023-08-07T13:21:03;22.50;99.80
36816;DHT22;71982;52.294;6.760;2023-08-07T13:23:30;23.50;98.60
36816;DHT22;71982;52.294;6.760;2023-08-07T13:25:57;24.10;98.40
36816;DHT22;71982;52.294;6.760;2023-08-07T13:28:23;23.40;97.80
36816;DHT22;71982;52.294;6.760;2023-08-07T13:30:50;23.10;98.30
36816;DHT22;71982;52.294;6.760;2023-08-07T13:33:20;22.60;98.60
36816;DHT22;71982;52.294;6.760;2023-08-07T13:35:47;22.30;98.80
36816;DHT22;71982;52.294;6.760;2023-08-07T13:38:14;22.60;99.90
36816;DHT22;71982;52.294;6.760;2023-08-07T13:40:44;22.60;99.60
36816;DHT22;71982;52.294;6.760;2023-08-07T13:43:10;23.40;98.40
36816;DHT22;71982;52.294;6.760;2023-08-07T13:45:37;23.10;98.40
36816;DHT22;71982;52.294;6.760;2023-08-07T13:48:04;22.50;98.90
36816;DHT22;71982;52.294;6.760;2023-08-07T13:50:33;23.50;98.40
36816;DHT22;71982;52.294;6.760;2023-08-07T13:52:59;24.00;97.80
36816;DHT22;71982;52.294;6.760;2023-08-07T13:55:26;24.30;97.80
36816;DHT22;71982;52.294;6.760;2023-08-07T13:57:54;23.40;98.00
36816;DHT22;71982;52.294;6.760;2023-08-07T14:00:21;23.70;98.80
36816;DHT22;71982;52.294;6.760;2023-08-07T14:02:48;23.30;97.60
36816;DHT22;71982;52.294;6.760;2023-08-07T14:05:15;22.60;99.00
36816;DHT22;71982;52.294;6.760;2023-08-07T14:07:43;22.90;98.50
36816;DHT22;71982;52.294;6.760;2023-08-07T14:10:09;23.20;98.70
36816;DHT22;71982;52.294;6.760;2023-08-07T14:12:36;22.30;98.60
36816;DHT22;71982;52.294;6.760;2023-08-07T14:15:04;23.50;98.70
36816;DHT22;71982;52.294;6.760;2023-08-07T14:17:30;24.50;97.20
36816;DHT22;71982;52.294;6.760;2023-08-07T14:19:57;24.80;97.70
36816;DHT22;71982;52.294;6.760;2023-08-07T14:22:24;25.50;97.50
36816;DHT22;71982;52.294;6.760;2023-08-07T14:24:52;25.50;96.80
36816;DHT22;71982;52.294;6.760;2023-08-07T14:27:19;25.70;97.10
36816;DHT22;71982;52.294;6.760;2023-08-07T14:29:45;25.20;97.70
36816;DHT22;71982;52.294;6.760;2023-08-07T14:32:12;25.00;99.90
36816;DHT22;71982;52.294;6.760;2023-08-07T14:34:39;25.30;97.50
36816;DHT22;71982;52.294;6.760;2023-08-07T14:37:06;24.80;96.40
36816;DHT22;71982;52.294;6.760;2023-08-07T14:39:33;24.10;97.40
36816;DHT22;71982;52.294;6.760;2023-08-07T14:42:01;23.50;97.80
36816;DHT22;71982;52.294;6.760;2023-08-07T14:44:28;23.40;98.00
36816;DHT22;71982;52.294;6.760;2023-08-07T14:46:55;24.70;96.90
36816;DHT22;71982;52.294;6.760;2023-08-07T14:49:21;24.70;96.70
36816;DHT22;71982;52.294;6.760;2023-08-07T14:51:48;24.70;96.40
36816;DHT22;71982;52.294;6.760;2023-08-07T14:54:15;24.50;96.80
36816;DHT22;71982;52.294;6.760;2023-08-07T14:56:42;23.30;97.10
36816;DHT22;71982;52.294;6.760;2023-08-07T14:59:10;22.40;97.70
36816;DHT22;71982;52.294;6.760;2023-08-07T15:01:37;22.00;98.70
36816;DHT22;71982;52.294;6.760;2023-08-07T15:04:04;21.60;98.80
36816;DHT22;71982;52.294;6.760;2023-08-07T15:06:31;21.30;99.20
36816;DHT22;71982;52.294;6.760;2023-08-07T15:08:58;20.90;99.50
36816;DHT22;71982;52.294;6.760;2023-08-07T15:11:25;20.60;99.90
36816;DHT22;71982;52.294;6.760;2023-08-07T15:13:52;20.40;99.90
36816;DHT22;71982;52.294;6.760;2023-08-07T15:16:20;20.20;99.60
36816;DHT22;71982;52.294;6.760;2023-08-07T15:18:46;19.90;99.90
36816;DHT22;71982;52.294;6.760;2023-08-07T15:21:13;19.50;99.90
36816;DHT22;71982;52.294;6.760;2023-08-07T15:23:40;19.30;99.90
36816;DHT22;71982;52.294;6.760;2023-08-07T15:26:07;19.20;99.90
36816;DHT22;71982;52.294;6.760;2023-08-07T15:28:33;19.20;99.90
36816;DHT22;71982;52.294;6.760;2023-08-07T15:31:00;19.30;99.90
36816;DHT22;71982;52.294;6.760;2023-08-07T15:33:28;19.50;99.90
36816;DHT22;71982;52.294;6.760;2023-08-07T15:35:55;19.90;99.90
36816;DHT22;71982;52.294;6.760;2023-08-07T15:38:23;19.90;99.90
36816;DHT22;71982;52.294;6.760;2023-08-07T15:40:50;19.80;99.90
36816;DHT22;71982;52.294;6.760;2023-08-07T15:43:18;20.30;99.90
36816;DHT22;71982;52.294;6.760;2023-08-07T15:45:45;21.00;99.60
36816;DHT22;71982;52.294;6.760;2023-08-07T15:48:13;20.70;98.70
36816;DHT22;71982;52.294;6.760;2023-08-07T15:50:41;20.00;99.50
36816;DHT22;71982;52.294;6.760;2023-08-07T15:53:08;19.80;99.90
36816;DHT22;71982;52.294;6.760;2023-08-07T15:55:35;19.30;99.90
36816;DHT22;71982;52.294;6.760;2023-08-07T15:58:02;20.30;99.90
36816;DHT22;71982;52.294;6.760;2023-08-07T16:00:29;20.80;99.50
36816;DHT22;71982;52.294;6.760;2023-08-07T16:02:59;20.40;99.00
36816;DHT22;71982;52.294;6.760;2023-08-07T16:05:26;19.80;99.60
36816;DHT22;71982;52.294;6.760;2023-08-07T16:07:55;19.40;99.40
36816;DHT22;71982;52.294;6.760;2023-08-07T16:10:21;19.30;99.90
36816;DHT22;71982;52.294;6.760;2023-08-07T16:12:50;19.40;99.90
36816;DHT22;71982;52.294;6.760;2023-08-07T16:15:17;19.40;99.90
36816;DHT22;71982;52.294;6.760;2023-08-07T16:17:44;19.20;99.90
36816;DHT22;71982;52.294;6.760;2023-08-07T16:20:11;19.20;99.90
36816;DHT22;71982;52.294;6.760;2023-08-07T16:22:39;19.10;99.90
36816;DHT22;71982;52.294;6.760;2023-08-07T16:25:08;19.20;99.90
36816;DHT22;71982;52.294;6.760;2023-08-07T16:27:35;19.30;99.90
36816;DHT22;71982;52.294;6.760;2023-08-07T16:30:04;19.00;99.90
36816;DHT22;71982;52.294;6.760;2023-08-07T16:32:31;19.10;99.90
36816;DHT22;71982;52.294;6.760;2023-08-07T16:34:58;19.10;99.90
36816;DHT22;71982;52.294;6.760;2023-08-07T16:37:25;18.90;99.90
36816;DHT22;71982;52.294;6.760;2023-08-07T16:39:52;18.90;99.90
36816;DHT22;71982;52.294;6.760;2023-08-07T16:42:20;18.90;99.90
36816;DHT22;71982;52.294;6.760;2023-08-07T16:44:48;18.70;99.90
36816;DHT22;71982;52.294;6.760;2023-08-07T16:47:15;18.60;99.90
36816;DHT22;71982;52.294;6.760;2023-08-07T16:49:42;18.70;99.90
36816;DHT22;71982;52.294;6.760;2023-08-07T16:52:09;18.50;99.90
36816;DHT22;71982;52.294;6.760;2023-08-07T16:54:37;18.60;99.90
36816;DHT22;71982;52.294;6.760;2023-08-07T16:57:04;18.70;99.90
36816;DHT22;71982;52.294;6.760;2023-08-07T16:59:32;18.80;99.90
36816;DHT22;71982;52.294;6.760;2023-08-07T17:01:59;18.60;99.90
36816;DHT22;71982;52.294;6.760;2023-08-07T17:04:26;18.50;99.90
36816;DHT22;71982;52.294;6.760;2023-08-07T17:06:55;18.50;99.90
36816;DHT22;71982;52.294;6.760;2023-08-07T17:09:24;18.40;99.90
36816;DHT22;71982;52.294;6.760;2023-08-07T17:11:51;18.30;99.90
36816;DHT22;71982;52.294;6.760;2023-08-07T17:14:17;18.20;99.90
36816;DHT22;71982;52.294;6.760;2023-08-07T17:16:45;18.10;99.90
36816;DHT22;71982;52.294;6.760;2023-08-07T17:19:12;17.90;99.90
36816;DHT22;71982;52.294;6.760;2023-08-07T17:21:39;17.90;99.90
36816;DHT22;71982;52.294;6.760;2023-08-07T17:24:06;18.00;99.90
36816;DHT22;71982;52.294;6.760;2023-08-07T17:26:33;18.20;99.90
36816;DHT22;71982;52.294;6.760;2023-08-07T17:29:00;18.10;99.90
36816;DHT22;71982;52.294;6.760;2023-08-07T17:31:28;18.00;99.90
36816;DHT22;71982;52.294;6.760;2023-08-07T17:33:57;18.00;99.90